Time;durP1;ratioP1;P1;durP2;ratioP2;P2;SDS_P1;SDS_P2;PMS_P1;PMS_P2;Temp;Humidity;BMP_temperature;BMP_pressure;BME280_temperature;BME280_humidity;BME280_pressure;Samples;Min_cycle;Max_cycle;Signal;HPM_P1;HPM_P2
2022/11/15 00:02:15;;;;;;;3.40;1.90;;;;;;;6.50;100.00;96525.13;5057152;28;20289;-57
2022/11/15 00:04:44;;;;;;;3.07;2.23;;;;;;;6.43;100.00;96521.31;5056764;28;20234;-56
2022/11/15 00:07:12;;;;;;;2.50;2.40;;;;;;;6.40;100.00;96513.69;5057142;28;20655;-57
2022/11/15 00:09:40;;;;;;;4.17;2.50;;;;;;;6.37;100.00;96513.94;5073984;28;20312;-57
2022/11/15 00:12:07;;;;;;;3.50;2.57;;;;;;;6.31;100.00;96515.22;5076796;28;20210;-57
2022/11/15 00:14:35;;;;;;;2.73;2.53;;;;;;;6.29;100.00;96514.53;5076130;28;20217;-55
2022/11/15 00:17:05;;;;;;;3.50;2.70;;;;;;;6.30;100.00;96507.47;5076565;28;20290;-58
2022/11/15 00:19:32;;;;;;;2.60;2.40;;;;;;;6.27;100.00;96507.72;5070704;28;20211;-58
2022/11/15 00:21:59;;;;;;;2.60;2.40;;;;;;;6.25;100.00;96493.88;5056282;28;20662;-57
2022/11/15 00:24:27;;;;;;;2.97;2.43;;;;;;;6.22;100.00;96500.22;5061510;28;20230;-55
2022/11/15 00:26:53;;;;;;;2.33;2.23;;;;;;;6.17;100.00;96497.09;5076396;28;20643;-56
2022/11/15 00:29:21;;;;;;;5.20;2.57;;;;;;;6.16;100.00;96490.19;5056027;28;20211;-56
2022/11/15 00:31:48;;;;;;;4.23;2.63;;;;;;;6.21;100.00;96481.94;5055871;28;20242;-56
2022/11/15 00:34:20;;;;;;;2.70;2.50;;;;;;;6.19;100.00;96483.84;5056561;28;20203;-56
2022/11/15 00:36:46;;;;;;;3.13;2.53;;;;;;;6.22;100.00;96486.25;5056214;28;20227;-57
2022/11/15 00:39:13;;;;;;;2.80;2.60;;;;;;;6.26;100.00;96491.13;5056771;28;20257;-57
2022/11/15 00:41:41;;;;;;;3.10;2.80;;;;;;;6.33;100.00;96487.06;5064481;28;20206;-56
2022/11/15 00:44:08;;;;;;;4.50;3.00;;;;;;;6.33;100.00;96480.97;5055946;28;20248;-56
2022/11/15 00:46:35;;;;;;;4.07;2.60;;;;;;;6.40;100.00;96492.69;5073912;28;20275;-57
2022/11/15 00:49:01;;;;;;;2.10;2.00;;;;;;;6.44;100.00;96489.69;5076104;28;20246;-57
2022/11/15 00:51:30;;;;;;;4.07;2.20;;;;;;;6.45;100.00;96496.59;5075403;28;20214;-58
2022/11/15 00:53:58;;;;;;;1.80;1.70;;;;;;;6.50;100.00;96498.88;5056752;28;20286;-57
2022/11/15 00:56:24;;;;;;;2.60;2.00;;;;;;;6.58;100.00;96500.88;5055647;28;20274;-56
2022/11/15 00:58:53;;;;;;;2.17;1.97;;;;;;;6.62;100.00;96497.91;5055891;28;20607;-56
2022/11/15 01:01:21;;;;;;;2.00;1.90;;;;;;;6.60;100.00;96498.97;5059753;28;20212;-56
2022/11/15 01:03:50;;;;;;;3.33;1.70;;;;;;;6.64;100.00;96498.59;5059614;28;20207;-57
2022/11/15 01:06:20;;;;;;;2.53;2.27;;;;;;;6.66;100.00;96501.94;5059881;28;20206;-56
2022/11/15 01:08:47;;;;;;;5.47;2.30;;;;;;;6.72;100.00;96498.84;5060167;28;20285;-58
2022/11/15 01:11:13;;;;;;;3.03;2.30;;;;;;;6.75;100.00;96497.75;5059826;28;20231;-57
2022/11/15 01:13:43;;;;;;;2.80;2.60;;;;;;;6.80;100.00;96500.84;5060090;28;20265;-57
2022/11/15 01:16:13;;;;;;;3.80;3.47;;;;;;;6.81;100.00;96494.59;5073507;28;20235;-56
2022/11/15 01:18:40;;;;;;;3.87;3.57;;;;;;;6.84;100.00;96483.84;5059386;28;20214;-57
2022/11/15 01:21:08;;;;;;;4.80;4.00;;;;;;;6.85;100.00;96475.84;5064590;28;20533;-56
2022/11/15 01:23:35;;;;;;;5.10;3.50;;;;;;;6.90;100.00;96475.50;5075290;28;20632;-58
2022/11/15 01:26:02;;;;;;;3.87;3.50;;;;;;;6.89;100.00;96473.81;5059972;28;20247;-55
2022/11/15 01:28:31;;;;;;;4.07;3.67;;;;;;;6.85;100.00;96467.13;5082709;28;20208;-59
2022/11/15 01:30:59;;;;;;;6.97;3.53;;;;;;;6.81;100.00;96456.03;5096285;28;20206;-58
2022/11/15 01:33:29;;;;;;;3.40;3.20;;;;;;;6.81;100.00;96450.78;5081203;28;20211;-58
2022/11/15 01:35:57;;;;;;;4.23;3.23;;;;;;;6.80;100.00;96443.84;5072006;28;20210;-56
2022/11/15 01:38:24;;;;;;;5.13;3.33;;;;;;;6.85;100.00;96441.69;5065751;28;20211;-56
2022/11/15 01:40:53;;;;;;;3.87;3.50;;;;;;;6.88;100.00;96440.59;5066105;28;20242;-56
2022/11/15 01:43:24;;;;;;;3.97;3.20;;;;;;;6.85;100.00;96435.59;5066768;28;20221;-56
2022/11/15 01:45:54;;;;;;;2.77;2.57;;;;;;;6.85;100.00;96441.69;5068743;28;20206;-56
2022/11/15 01:48:21;;;;;;;2.87;2.60;;;;;;;6.88;100.00;96449.31;5064437;28;20199;-56
2022/11/15 01:50:57;;;;;;;2.77;2.57;;;;;;;6.88;100.00;96441.44;5059713;28;20239;-56
2022/11/15 01:53:25;;;;;;;2.17;1.90;;;;;;;6.91;100.00;96435.91;5060404;28;20206;-56
2022/11/15 01:55:53;;;;;;;2.57;2.17;;;;;;;6.95;100.00;96437.34;5059955;28;20237;-58
2022/11/15 01:58:20;;;;;;;2.17;2.07;;;;;;;7.00;100.00;96422.03;5059940;28;20206;-57
2022/11/15 02:00:47;;;;;;;2.10;2.00;;;;;;;7.00;100.00;96435.19;5060698;28;20211;-58
2022/11/15 02:03:15;;;;;;;3.97;2.27;;;;;;;7.02;100.00;96424.50;5073762;28;20221;-57
2022/11/15 02:05:42;;;;;;;4.37;2.17;;;;;;;7.01;100.00;96426.31;5062614;28;20203;-56
2022/11/15 02:08:19;;;;;;;3.20;2.20;;;;;;;7.08;100.00;96426.66;5069883;28;20229;-57
2022/11/15 02:10:46;;;;;;;3.13;2.80;;;;;;;7.08;100.00;96420.56;5078544;28;20223;-57
2022/11/15 02:13:13;;;;;;;3.80;2.17;;;;;;;7.12;100.00;96416.72;5083890;28;20202;-57
2022/11/15 02:15:50;;;;;;;2.90;2.20;;;;;;;7.15;100.00;96424.34;5085788;28;20206;-57
2022/11/15 02:18:24;;;;;;;3.37;2.33;;;;;;;7.18;100.00;96421.47;5077117;28;20203;-57
2022/11/15 02:21:09;;;;;;;2.77;2.50;;;;;;;7.18;100.00;96416.22;5081642;28;20203;-56
2022/11/15 02:24:09;;;;;;;3.73;2.33;;;;;;;7.18;100.00;96421.47;5076120;28;20225;-57
2022/11/15 02:27:07;;;;;;;3.13;2.93;;;;;;;7.17;100.00;96425.03;5074001;28;20199;-57
2022/11/15 02:29:47;;;;;;;2.97;2.77;;;;;;;7.21;100.00;96423.84;5059180;28;20261;-56
2022/11/15 02:32:21;;;;;;;3.77;3.47;;;;;;;7.25;100.00;96412.94;5057716;28;20246;-56
2022/11/15 02:34:52;;;;;;;4.53;3.10;;;;;;;7.25;100.00;96409.47;5058524;28;20210;-57
2022/11/15 02:37:26;;;;;;;3.50;2.70;;;;;;;7.33;100.00;96404.41;5058130;28;20231;-55
2022/11/15 02:39:58;;;;;;;4.57;3.03;;;;;;;7.38;100.00;96389.06;5058407;28;20209;-56
2022/11/15 02:45:18;;;;;;;3.53;3.23;;;;;;;7.35;100.00;96391.94;5073499;28;20203;-55
2022/11/15 02:47:48;;;;;;;3.53;3.23;;;;;;;7.36;100.00;96388.38;5077424;28;20202;-58
2022/11/15 02:50:18;;;;;;;3.40;3.10;;;;;;;7.35;100.00;96384.06;5073342;28;20206;-56
2022/11/15 02:52:46;;;;;;;4.03;3.37;;;;;;;7.33;100.00;96378.09;5056861;28;20238;-56
2022/11/15 02:55:30;;;;;;;3.50;3.20;;;;;;;7.31;100.00;96380.00;5057968;28;20290;-58
2022/11/15 02:58:20;;;;;;;3.70;3.33;;;;;;;7.34;100.00;96374.50;5071354;28;20236;-56
2022/11/15 03:00:52;;;;;;;3.87;3.43;;;;;;;7.40;100.00;96374.00;5058020;28;20226;-57
2022/11/15 03:03:32;;;;;;;3.33;3.13;;;;;;;7.33;100.00;96367.59;5057412;28;20291;-57
2022/11/15 03:06:06;;;;;;;3.73;3.10;;;;;;;7.30;100.00;96378.34;5057485;28;20199;-58
2022/11/15 03:08:41;;;;;;;4.47;3.43;;;;;;;7.32;100.00;96371.19;5057875;28;20473;-57
2022/11/15 03:11:10;;;;;;;3.37;3.17;;;;;;;7.38;100.00;96374.13;5057841;28;20234;-56
2022/11/15 03:13:40;;;;;;;3.10;2.90;;;;;;;7.38;100.00;96375.91;5056584;28;20203;-57
2022/11/15 03:16:12;;;;;;;3.53;3.20;;;;;;;7.37;100.00;96369.81;5057690;28;20536;-55
2022/11/15 03:18:45;;;;;;;3.43;3.13;;;;;;;7.38;100.00;96365.38;5066818;28;20557;-57
2022/11/15 03:21:14;;;;;;;3.50;3.20;;;;;;;7.37;100.00;96364.53;5063372;28;20238;-56
2022/11/15 03:23:41;;;;;;;3.47;3.03;;;;;;;7.31;100.00;96359.81;5075477;28;20198;-56
2022/11/15 03:26:10;;;;;;;3.30;3.10;;;;;;;7.34;100.00;96363.97;5061570;28;20207;-56
2022/11/15 03:28:39;;;;;;;2.93;2.80;;;;;;;7.36;100.00;96351.53;5061519;28;20207;-58
2022/11/15 03:31:46;;;;;;;3.40;3.10;;;;;;;7.30;100.00;96344.16;5070726;28;20594;-56
2022/11/15 03:33:57;;;;;;;6.43;3.30;;;;;;;7.31;100.00;96344.03;5085644;28;20527;-57
2022/11/15 03:36:25;;;;;;;4.23;2.70;;;;;;;7.35;100.00;96344.59;5079638;28;20580;-57
2022/11/15 03:38:55;;;;;;;5.13;3.20;;;;;;;7.34;100.00;96354.28;5078985;28;20241;-57
2022/11/15 03:41:25;;;;;;;3.57;3.27;;;;;;;7.30;100.00;96357.31;5082186;28;20229;-56
2022/11/15 03:43:57;;;;;;;3.10;2.80;;;;;;;7.28;100.00;96349.56;5081816;28;20218;-56
2022/11/15 03:46:27;;;;;;;3.27;2.97;;;;;;;7.34;100.00;96361.34;5078735;28;20218;-58
2022/11/15 03:48:59;;;;;;;3.17;2.83;;;;;;;7.34;100.00;96361.34;5063528;28;20207;-58
2022/11/15 03:51:26;;;;;;;3.10;2.80;;;;;;;7.30;100.00;96357.31;5081176;28;20214;-58
2022/11/15 03:53:55;;;;;;;3.37;2.80;;;;;;;7.26;100.00;96351.47;5085177;28;20210;-57
2022/11/15 03:56:22;;;;;;;3.00;2.47;;;;;;;7.29;100.00;96355.66;5091942;28;20243;-57
2022/11/15 03:58:51;;;;;;;4.23;3.10;;;;;;;7.19;100.00;96354.78;5093620;28;20202;-57
2022/11/15 04:01:17;;;;;;;2.70;2.60;;;;;;;7.12;100.00;96359.69;5089538;28;20210;-57
2022/11/15 04:03:44;;;;;;;3.43;3.17;;;;;;;7.06;100.00;96359.38;5096397;28;20182;-59
2022/11/15 04:06:12;;;;;;;5.77;2.90;;;;;;;6.96;100.00;96343.53;5092883;28;20206;-55
2022/11/15 04:08:41;;;;;;;2.90;2.70;;;;;;;7.01;100.00;96352.69;5076963;28;20259;-56
2022/11/15 04:11:08;;;;;;;3.47;3.20;;;;;;;6.93;100.00;96349.06;5076698;28;20293;-56
2022/11/15 04:13:35;;;;;;;3.60;3.30;;;;;;;6.84;100.00;96345.38;5076542;28;20249;-56
2022/11/15 04:16:02;;;;;;;2.63;2.43;;;;;;;6.84;100.00;96349.81;5073728;28;20203;-57
2022/11/15 04:18:29;;;;;;;2.70;2.50;;;;;;;6.75;100.00;96346.16;5056506;28;20223;-57
2022/11/15 04:26:30;;;;;;;3.20;3.00;;;;;;;6.58;100.00;96344.09;5055998;28;20215;-58
2022/11/15 04:31:44;;;;;;;3.27;3.03;;;;;;;6.48;100.00;96335.31;5056356;28;20250;-57
2022/11/15 04:34:13;;;;;;;3.70;2.83;;;;;;;6.46;100.00;96330.16;5070739;28;20232;-59
2022/11/15 04:39:27;;;;;;;2.90;2.70;;;;;;;6.39;100.00;96331.63;5095000;28;20179;-58
2022/11/15 04:41:54;;;;;;;2.90;2.57;;;;;;;6.33;100.00;96331.28;5077271;28;20213;-56
2022/11/15 04:44:21;;;;;;;3.07;2.60;;;;;;;6.33;100.00;96333.91;5055459;28;20242;-56
2022/11/15 04:46:48;;;;;;;2.53;2.13;;;;;;;6.28;100.00;96330.81;5069681;28;20568;-57
2022/11/15 04:49:14;;;;;;;2.50;2.30;;;;;;;6.28;100.00;96326.41;5054538;28;20230;-56
2022/11/15 04:51:41;;;;;;;1.70;1.60;;;;;;;6.23;100.00;96331.22;5054848;28;20273;-56
2022/11/15 04:54:08;;;;;;;3.00;2.10;;;;;;;6.19;100.00;96331.59;5057939;28;20218;-59
2022/11/15 04:56:36;;;;;;;2.33;2.23;;;;;;;6.17;100.00;96333.47;5059316;28;20270;-57
2022/11/15 04:59:03;;;;;;;3.53;2.20;;;;;;;6.23;100.00;96322.50;5069339;28;20211;-58
2022/11/15 05:01:29;;;;;;;2.73;2.13;;;;;;;6.24;100.00;96317.09;5073332;28;20210;-58
2022/11/15 05:06:40;;;;;;;2.30;2.20;;;;;;;6.20;100.00;96318.31;5075128;28;20174;-58
2022/11/15 05:09:08;;;;;;;3.60;2.10;;;;;;;6.22;100.00;96315.56;5059774;28;20246;-56
2022/11/15 05:11:36;;;;;;;3.63;2.57;;;;;;;6.19;100.00;96310.56;5055928;28;20290;-57
2022/11/15 05:14:03;;;;;;;3.20;2.60;;;;;;;6.24;100.00;96308.41;5056057;28;20243;-57
2022/11/15 05:16:31;;;;;;;3.23;3.03;;;;;;;6.24;100.00;96297.88;5055675;28;20207;-58
2022/11/15 05:18:58;;;;;;;5.43;3.00;;;;;;;6.22;100.00;96299.81;5055786;28;20222;-57
2022/11/15 05:21:25;;;;;;;3.93;3.10;;;;;;;6.24;100.00;96298.72;5062400;28;20272;-57
2022/11/15 05:23:52;;;;;;;3.40;3.10;;;;;;;6.26;100.00;96303.88;5075927;28;20588;-60
2022/11/15 05:26:20;;;;;;;3.50;3.20;;;;;;;6.22;100.00;96294.56;5076199;28;20245;-56
2022/11/15 05:28:53;;;;;;;3.83;3.53;;;;;;;6.24;100.00;96290.00;5075328;28;20228;-55
2022/11/15 05:31:21;;;;;;;3.80;3.50;;;;;;;6.26;100.00;96285.50;5075843;28;20273;-56
2022/11/15 05:33:47;;;;;;;3.60;3.37;;;;;;;6.23;100.00;96277.88;5075721;28;20237;-57
2022/11/15 05:36:19;;;;;;;4.07;3.73;;;;;;;6.26;100.00;96285.50;5075678;28;20242;-57
2022/11/15 05:38:46;;;;;;;3.60;3.30;;;;;;;6.21;100.00;96280.59;5075434;28;20226;-56
2022/11/15 05:41:15;;;;;;;3.93;3.40;;;;;;;6.21;100.00;96277.97;5072360;28;20522;-56
2022/11/15 05:43:45;;;;;;;3.33;3.03;;;;;;;6.22;100.00;96279.66;5059497;28;20280;-58
2022/11/15 05:46:13;;;;;;;3.33;3.03;;;;;;;6.23;100.00;96273.47;5067074;28;20210;-56
2022/11/15 05:48:42;;;;;;;4.13;3.10;;;;;;;6.21;100.00;96271.88;5079048;28;20234;-57
2022/11/15 05:51:11;;;;;;;3.67;3.03;;;;;;;6.24;100.00;96282.13;5078754;28;20214;-56
2022/11/15 05:53:38;;;;;;;4.90;3.30;;;;;;;6.28;100.00;96273.91;5078562;28;20237;-61
2022/11/15 05:56:07;;;;;;;3.77;2.90;;;;;;;6.34;100.00;96280.47;5066267;28;20264;-56
2022/11/15 05:58:35;;;;;;;3.33;2.80;;;;;;;6.37;100.00;96280.19;5058457;28;20322;-55
2022/11/15 06:01:03;;;;;;;4.77;3.40;;;;;;;6.37;100.00;96281.03;5058515;28;20238;-58
2022/11/15 06:03:31;;;;;;;4.70;3.33;;;;;;;6.33;100.00;96282.25;5058604;28;20211;-55
2022/11/15 06:05:58;;;;;;;4.47;3.03;;;;;;;6.42;100.00;96275.38;5058047;28;20242;-55
2022/11/15 06:08:26;;;;;;;3.80;3.30;;;;;;;6.49;100.00;96281.78;5057264;28;20250;-56
2022/11/15 06:10:53;;;;;;;4.10;3.40;;;;;;;6.45;100.00;96275.97;5058662;28;20239;-58
2022/11/15 06:13:20;;;;;;;3.33;3.07;;;;;;;6.45;100.00;96275.13;5056099;28;20771;-57
2022/11/15 06:15:46;;;;;;;3.50;3.23;;;;;;;6.46;100.00;96276.81;5056365;28;20245;-57
2022/11/15 06:18:13;;;;;;;3.80;3.40;;;;;;;6.50;100.00;96284.31;5064356;28;20253;-57
2022/11/15 06:20:44;;;;;;;3.13;2.93;;;;;;;6.55;100.00;96273.44;5064133;28;20284;-58
2022/11/15 06:23:11;;;;;;;4.17;3.10;;;;;;;6.54;100.00;96274.38;5068901;28;20202;-57
2022/11/15 06:25:38;;;;;;;4.47;2.93;;;;;;;6.54;100.00;96271.75;5071217;28;20208;-57
2022/11/15 06:28:05;;;;;;;6.00;3.13;;;;;;;6.57;100.00;96268.88;5066820;28;20283;-58
2022/11/15 06:30:31;;;;;;;4.20;3.40;;;;;;;6.53;100.00;96269.25;5069048;28;20260;-56
2022/11/15 06:33:02;;;;;;;3.97;3.57;;;;;;;6.53;100.00;96275.34;5086318;28;20230;-57
2022/11/15 06:35:32;;;;;;;3.60;3.40;;;;;;;6.52;100.00;96272.84;5082744;28;20266;-60
2022/11/15 06:38:07;;;;;;;3.63;3.30;;;;;;;6.57;100.00;96270.66;5090474;28;20202;-57
2022/11/15 06:40:35;;;;;;;4.83;3.23;;;;;;;6.62;100.00;96266.69;5070811;28;20210;-58
2022/11/15 06:43:02;;;;;;;2.97;2.77;;;;;;;6.64;100.00;96264.75;5066656;28;20711;-57
2022/11/15 06:45:29;;;;;;;3.93;3.10;;;;;;;6.71;100.00;96265.91;5074078;28;20233;-57
2022/11/15 06:47:56;;;;;;;4.07;2.90;;;;;;;6.71;100.00;96271.19;5077942;28;20234;-57
2022/11/15 06:50:25;;;;;;;5.10;3.20;;;;;;;6.77;100.00;96265.41;5064667;28;20275;-57
2022/11/15 06:52:52;;;;;;;3.33;2.63;;;;;;;6.81;100.00;96271.22;5065020;28;20288;-57
2022/11/15 06:55:21;;;;;;;3.10;2.90;;;;;;;6.88;100.00;96267.13;5063853;28;20284;-57
2022/11/15 06:57:49;;;;;;;3.20;2.90;;;;;;;6.90;100.00;96262.59;5064346;28;20223;-57
2022/11/15 07:00:20;;;;;;;3.43;3.00;;;;;;;6.93;100.00;96267.56;5071402;28;20203;-55
2022/11/15 07:02:47;;;;;;;3.53;3.27;;;;;;;6.98;100.00;96270.63;5071532;28;20260;-57
2022/11/15 07:05:14;;;;;;;6.67;4.40;;;;;;;7.06;100.00;96265.56;5066380;28;20240;-56
2022/11/15 07:07:42;;;;;;;3.80;3.50;;;;;;;7.14;100.00;96264.91;5063214;28;20284;-55
2022/11/15 07:10:09;;;;;;;3.93;3.63;;;;;;;7.15;100.00;96269.22;5069722;28;20333;-58
2022/11/15 07:12:38;;;;;;;5.93;3.40;;;;;;;7.20;100.00;96269.63;5070426;28;20283;-57
2022/11/15 07:15:06;;;;;;;4.20;3.30;;;;;;;7.29;100.00;96266.22;5064445;28;20294;-58
2022/11/15 07:17:33;;;;;;;3.43;3.17;;;;;;;7.35;100.00;96270.97;5061854;28;20242;-57
2022/11/15 07:20:00;;;;;;;6.33;3.50;;;;;;;7.39;100.00;96264.47;5067852;28;20238;-57
2022/11/15 07:22:26;;;;;;;4.97;3.30;;;;;;;7.45;100.00;96271.81;5068906;28;20230;-58
2022/11/15 07:24:53;;;;;;;4.50;4.10;;;;;;;7.54;100.00;96272.84;5062234;28;20278;-56
2022/11/15 07:27:20;;;;;;;6.67;4.80;;;;;;;7.53;100.00;96269.38;5069490;28;20207;-57
2022/11/15 07:29:48;;;;;;;7.27;4.67;;;;;;;7.56;100.00;96274.34;5064604;28;20245;-56
2022/11/15 07:32:15;;;;;;;5.13;4.50;;;;;;;7.64;100.00;96266.63;5062351;28;20262;-56
2022/11/15 07:34:42;;;;;;;5.30;4.00;;;;;;;7.71;100.00;96267.75;5067340;28;20238;-57
2022/11/15 07:37:09;;;;;;;5.53;4.20;;;;;;;7.83;100.00;96266.66;5070235;28;20206;-57
2022/11/15 07:39:35;;;;;;;6.70;5.33;;;;;;;7.91;100.00;96271.25;5064993;28;20329;-57
2022/11/15 07:44:49;;;;;;;5.73;4.93;;;;;;;8.06;100.00;96261.16;5064987;28;20218;-56
2022/11/15 07:47:16;;;;;;;5.30;4.50;;;;;;;8.07;100.00;96265.47;5056357;28;20297;-57
2022/11/15 07:49:42;;;;;;;5.30;4.50;;;;;;;8.14;100.00;96264.78;5055962;28;20286;-57
2022/11/15 07:52:09;;;;;;;5.30;4.90;;;;;;;8.30;100.00;96266.91;5055723;28;20245;-58
2022/11/15 07:54:36;;;;;;;9.93;4.80;;;;;;;8.39;100.00;96269.56;5055665;28;20259;-57
2022/11/15 07:57:02;;;;;;;5.40;4.90;;;;;;;8.46;100.00;96264.56;5055534;28;20222;-57
2022/11/15 07:59:29;;;;;;;6.40;4.20;;;;;;;8.55;100.00;96258.44;5055344;28;20609;-58
2022/11/15 08:01:57;;;;;;;5.20;4.63;;;;;;;8.64;100.00;96262.88;5068307;28;20248;-57
2022/11/15 08:04:24;;;;;;;5.80;4.50;;;;;;;8.71;100.00;96260.50;5068783;28;20263;-57
2022/11/15 08:06:51;;;;;;;5.10;4.47;;;;;;;8.75;100.00;96259.25;5055689;28;20235;-57
2022/11/15 08:09:18;;;;;;;9.23;4.60;;;;;;;8.72;100.00;96265.63;5068932;28;20222;-57
2022/11/15 08:11:44;;;;;;;11.90;5.23;;;;;;;8.77;100.00;96258.16;5063798;28;20289;-57
2022/11/15 08:14:14;;;;;;;6.00;4.20;;;;;;;8.85;100.00;96250.38;5059690;28;20289;-57
2022/11/15 08:16:40;;;;;;;7.83;4.73;;;;;;;8.94;100.00;96254.78;5064379;28;20206;-57
2022/11/15 08:19:09;;;;;;;9.87;4.90;;;;;;;8.93;100.00;96252.25;5062145;28;20231;-58
2022/11/15 08:21:37;;;;;;;4.80;4.10;;;;;;;8.97;100.00;96243.09;5067447;28;20632;-57
2022/11/15 08:24:07;;;;;;;6.63;4.73;;;;;;;9.06;100.00;96241.41;5069607;28;20206;-55
2022/11/15 08:26:34;;;;;;;5.23;4.73;;;;;;;9.05;100.00;96240.59;5065593;28;20230;-56
2022/11/15 08:29:00;;;;;;;5.07;4.67;;;;;;;9.09;100.00;96241.13;5062681;28;20294;-57
2022/11/15 08:31:27;;;;;;;6.30;5.07;;;;;;;9.15;100.00;96243.19;5066164;28;20681;-57
2022/11/15 08:33:55;;;;;;;5.50;4.77;;;;;;;9.17;100.00;96238.63;5059440;28;20597;-56
2022/11/15 08:36:23;;;;;;;7.57;5.40;;;;;;;9.24;100.00;96239.69;5066113;28;20639;-56
2022/11/15 08:38:50;;;;;;;7.17;5.00;;;;;;;9.30;100.00;96236.47;5059772;28;20569;-56
2022/11/15 08:41:23;;;;;;;5.50;4.87;;;;;;;9.38;100.00;96231.31;5071912;28;20563;-58
2022/11/15 08:43:49;;;;;;;5.30;4.80;;;;;;;9.38;100.00;96232.16;5062464;28;20206;-57
2022/11/15 08:46:18;;;;;;;5.30;4.77;;;;;;;9.42;100.00;96228.22;5073017;28;20643;-57
2022/11/15 08:48:46;;;;;;;4.50;4.10;;;;;;;9.55;100.00;96243.72;5080863;28;20309;-58
2022/11/15 08:51:12;;;;;;;5.10;4.60;;;;;;;9.65;100.00;96248.94;5056290;28;20238;-56
2022/11/15 08:53:40;;;;;;;4.73;4.33;;;;;;;9.71;100.00;96248.34;5069825;28;20244;-58
2022/11/15 08:56:08;;;;;;;7.77;5.00;;;;;;;9.77;100.00;96250.44;5069912;28;20226;-58
2022/11/15 08:58:35;;;;;;;5.73;5.10;;;;;;;9.81;100.00;96242.03;5066649;28;20283;-57
2022/11/15 09:01:02;;;;;;;5.50;5.00;;;;;;;9.89;100.00;96242.13;5075632;28;20203;-57
2022/11/15 09:03:29;;;;;;;5.70;5.20;;;;;;;9.93;100.00;96240.88;5078093;28;20217;-57
2022/11/15 09:05:56;;;;;;;5.80;5.30;;;;;;;9.97;100.00;96242.22;5077727;28;20211;-60
2022/11/15 09:08:23;;;;;;;4.83;4.43;;;;;;;10.02;100.00;96241.78;5065429;28;20296;-57
2022/11/15 09:10:51;;;;;;;7.47;5.50;;;;;;;9.99;100.00;96242.06;5063339;28;20604;-58
2022/11/15 09:13:18;;;;;;;6.43;4.90;;;;;;;10.02;100.00;96246.25;5075851;28;20218;-58
2022/11/15 09:15:45;;;;;;;6.03;5.40;;;;;;;9.98;100.00;96246.53;5059497;28;20242;-57
2022/11/15 09:18:11;;;;;;;5.70;5.20;;;;;;;9.97;100.00;96241.41;5062934;28;20223;-57
2022/11/15 09:20:38;;;;;;;5.63;5.07;;;;;;;10.00;100.00;96238.44;5062075;28;20230;-57
2022/11/15 09:23:06;;;;;;;5.40;4.80;;;;;;;9.97;100.00;96234.31;5070616;28;20238;-57
2022/11/15 09:25:33;;;;;;;5.50;5.00;;;;;;;9.93;100.00;96243.50;5060401;28;20203;-57
2022/11/15 09:28:01;;;;;;;5.70;5.03;;;;;;;9.89;100.00;96242.13;5069727;28;20205;-59
2022/11/15 09:30:27;;;;;;;5.70;5.07;;;;;;;9.89;100.00;96241.31;5066071;28;20238;-58
2022/11/15 09:32:54;;;;;;;5.60;5.10;;;;;;;9.86;100.00;96242.44;5069562;28;20469;-57
2022/11/15 09:35:21;;;;;;;5.70;4.73;;;;;;;9.90;100.00;96246.44;5066195;28;20234;-58
2022/11/15 09:37:47;;;;;;;5.87;5.33;;;;;;;9.95;100.00;96251.28;5071186;28;20679;-58
2022/11/15 09:40:16;;;;;;;6.10;5.30;;;;;;;9.92;100.00;96251.56;5074053;28;20265;-57
2022/11/15 09:42:55;;;;;;;6.23;5.43;;;;;;;9.94;100.00;96249.63;5077005;28;20305;-57
2022/11/15 09:45:32;;;;;;;6.13;4.97;;;;;;;9.95;100.00;96252.09;5068348;28;20226;-57
2022/11/15 09:48:19;;;;;;;10.23;5.03;;;;;;;9.97;100.00;96255.44;5065105;28;20228;-57
2022/11/15 09:50:49;;;;;;;7.30;5.63;;;;;;;9.97;100.00;96254.59;5057717;28;20297;-57
2022/11/15 09:53:23;;;;;;;8.83;5.77;;;;;;;10.02;100.00;96247.88;5071157;28;20206;-57
2022/11/15 09:55:58;;;;;;;5.57;5.07;;;;;;;10.07;100.00;96249.25;5058025;28;20204;-57
2022/11/15 09:58:29;;;;;;;8.43;5.30;;;;;;;10.11;100.00;96247.97;5071060;28;20248;-57
2022/11/15 10:00:59;;;;;;;6.30;5.70;;;;;;;10.15;100.00;96234.34;5057484;28;20682;-57
2022/11/15 10:03:29;;;;;;;6.90;5.90;;;;;;;10.13;100.00;96236.25;5063757;28;20313;-57
2022/11/15 10:06:00;;;;;;;6.10;5.50;;;;;;;10.16;100.00;96227.25;5064149;28;20589;-57
2022/11/15 10:08:38;;;;;;;7.17;5.80;;;;;;;10.16;100.00;96221.97;5078244;28;20195;-59
2022/11/15 10:11:08;;;;;;;8.50;6.20;;;;;;;10.24;100.00;96219.38;5081439;28;20199;-58
2022/11/15 10:13:37;;;;;;;6.17;5.60;;;;;;;10.31;100.00;96215.16;5077585;28;20218;-57
2022/11/15 10:16:36;;;;;;;6.23;5.67;;;;;;;10.37;100.00;96211.94;5072211;28;20239;-57
2022/11/15 10:19:10;;;;;;;8.00;6.00;;;;;;;10.43;100.00;96208.66;5071071;28;20246;-57
2022/11/15 10:21:44;;;;;;;8.63;6.17;;;;;;;10.52;100.00;96210.41;5057018;28;20290;-57
2022/11/15 10:24:12;;;;;;;8.97;6.30;;;;;;;10.58;100.00;96214.25;5070732;28;20226;-56
2022/11/15 10:26:39;;;;;;;8.20;5.77;;;;;;;10.63;100.00;96215.44;5067375;28;20206;-57
2022/11/15 10:29:06;;;;;;;6.43;5.87;;;;;;;10.60;100.00;96213.09;5063491;28;20252;-58
2022/11/15 10:31:34;;;;;;;7.43;5.87;;;;;;;10.58;100.00;96206.31;5067082;28;20637;-57
2022/11/15 10:34:18;;;;;;;6.50;5.90;;;;;;;10.64;100.00;96211.81;5088723;28;20181;-58
2022/11/15 10:36:45;;;;;;;6.33;5.53;;;;;;;10.62;100.00;96203.22;5080061;28;20195;-58
2022/11/15 10:39:13;;;;;;;6.80;6.10;;;;;;;10.68;100.00;96201.75;5080086;28;20225;-58
2022/11/15 10:41:41;;;;;;;8.47;6.03;;;;;;;10.71;100.00;96204.91;5082055;28;20230;-58
2022/11/15 10:44:31;;;;;;;6.77;6.17;;;;;;;10.69;100.00;96193.69;5064097;28;20202;-57
2022/11/15 10:47:23;;;;;;;6.73;5.90;;;;;;;10.72;100.00;96182.78;5071745;28;20245;-57
2022/11/15 10:49:59;;;;;;;9.20;6.93;;;;;;;10.74;100.00;96190.56;5047299;28;20199;-58
2022/11/15 10:52:26;;;;;;;6.73;6.13;;;;;;;10.77;100.00;96188.44;5057232;28;20268;-57
2022/11/15 10:54:56;;;;;;;7.37;6.57;;;;;;;10.75;100.00;96190.41;5070262;28;20218;-57
2022/11/15 10:57:24;;;;;;;11.70;6.57;;;;;;;10.74;100.00;96186.09;5066893;28;20675;-57
2022/11/15 10:59:55;;;;;;;8.07;6.63;;;;;;;10.76;100.00;96189.44;5059914;28;20230;-57
2022/11/15 11:02:33;;;;;;;9.60;6.43;;;;;;;10.79;100.00;96177.72;5067801;28;20205;-57
2022/11/15 11:05:00;;;;;;;7.43;6.57;;;;;;;10.78;100.00;96171.59;5063583;28;20285;-57
2022/11/15 11:07:29;;;;;;;10.37;6.67;;;;;;;10.84;100.00;96164.88;5062936;28;20277;-58
2022/11/15 11:10:03;;;;;;;6.97;6.23;;;;;;;10.87;100.00;96149.50;5069990;28;20207;-57
2022/11/15 11:12:32;;;;;;;6.90;6.27;;;;;;;10.81;100.00;96144.81;5068244;28;20603;-58
2022/11/15 11:15:00;;;;;;;8.20;6.50;;;;;;;10.78;100.00;96147.78;5056306;28;20273;-58
2022/11/15 11:17:36;;;;;;;7.33;6.37;;;;;;;10.78;100.00;96139.00;5057426;28;20635;-59
2022/11/15 11:20:09;;;;;;;10.23;6.33;;;;;;;10.82;100.00;96130.63;5066660;28;20246;-57
2022/11/15 11:22:54;;;;;;;7.57;6.43;;;;;;;10.87;100.00;96130.16;5070283;28;20511;-57
2022/11/15 11:25:29;;;;;;;8.03;7.10;;;;;;;11.01;100.00;96128.72;5069675;28;20244;-57
2022/11/15 11:28:17;;;;;;;8.07;6.77;;;;;;;11.10;100.00;96130.41;5058535;28;20238;-56
2022/11/15 11:30:53;;;;;;;7.40;6.70;;;;;;;11.18;100.00;96117.22;5050796;28;20198;-58
2022/11/15 11:33:23;;;;;;;10.83;7.03;;;;;;;11.21;100.00;96103.66;5076629;28;20227;-57
2022/11/15 11:35:56;;;;;;;8.57;6.67;;;;;;;11.19;100.00;96092.44;5076767;28;20644;-57
2022/11/15 11:38:35;;;;;;;9.73;7.50;;;;;;;11.25;100.00;96086.50;5058355;28;20640;-57
2022/11/15 11:41:09;;;;;;;10.23;7.10;;;;;;;11.27;100.00;96082.69;5060862;28;20186;-58
2022/11/15 11:43:43;;;;;;;8.33;6.83;;;;;;;11.34;100.00;96073.09;5072697;28;20238;-57
2022/11/15 11:46:19;;;;;;;8.80;6.83;;;;;;;11.35;100.00;96068.66;5070421;28;20230;-57
2022/11/15 11:48:51;;;;;;;9.80;6.07;;;;;;;11.38;100.00;96065.66;5070418;28;20290;-56
2022/11/15 11:51:22;;;;;;;7.50;6.23;;;;;;;11.40;100.00;96072.47;5069988;28;20340;-57
2022/11/15 11:53:54;;;;;;;6.13;5.53;;;;;;;11.47;100.00;96059.41;5063357;28;20281;-57
2022/11/15 11:56:27;;;;;;;6.53;5.70;;;;;;;11.46;100.00;96044.50;5062985;28;20276;-57
2022/11/15 11:58:56;;;;;;;6.10;5.10;;;;;;;11.40;100.00;96043.38;5067388;28;20226;-57
2022/11/15 12:01:25;;;;;;;6.13;5.43;;;;;;;11.41;100.00;96028.28;5058250;28;20675;-57
2022/11/15 12:03:57;;;;;;;7.03;5.03;;;;;;;11.44;100.00;96035.91;5066021;28;20229;-56